createdAt,value
2022-12-26T00:12:30.793Z,977.6
2022-12-26T00:27:07.975Z,977.6
2022-12-26T00:41:45.841Z,977.6
2022-12-26T00:56:22.226Z,977.7
2022-12-26T01:11:00.125Z,977.6
2022-12-26T01:26:20.552Z,977.8
2022-12-26T01:40:42.352Z,978
2022-12-26T01:55:19.524Z,978.1
2022-12-26T02:09:57.915Z,978
2022-12-26T02:24:35.187Z,978.1
2022-12-26T02:39:47.099Z,978.2
2022-12-26T02:54:10.422Z,978
2022-12-26T03:08:48.510Z,978.1
2022-12-26T03:23:26.058Z,978.1
2022-12-26T03:38:03.354Z,978.2
2022-12-26T03:52:40.075Z,978.2
2022-12-26T04:07:16.894Z,978.2
2022-12-26T04:21:54.015Z,978.1
2022-12-26T04:36:31.574Z,978.4
2022-12-26T04:51:09.382Z,978.5
2022-12-26T05:05:47.714Z,978.4
2022-12-26T05:20:24.509Z,978.5
2022-12-26T05:35:01.457Z,978.8
2022-12-26T05:49:41.684Z,978.6
2022-12-26T06:04:17.205Z,978.7
2022-12-26T06:18:53.382Z,978.8
2022-12-26T06:33:31.205Z,978.9
2022-12-26T06:48:11.217Z,979
2022-12-26T07:02:47.411Z,979.2
2022-12-26T07:17:25.212Z,979.2
2022-12-26T07:32:02.967Z,979.3
2022-12-26T07:46:40.429Z,979.6
2022-12-26T08:01:16.882Z,979.7
2022-12-26T08:15:54.789Z,979.8
2022-12-26T08:30:32.270Z,979.9
2022-12-26T08:45:08.963Z,980
2022-12-26T08:59:46.795Z,980
2022-12-26T09:14:24.404Z,980.2
2022-12-26T09:29:02.520Z,980.5
2022-12-26T09:43:50.404Z,980.6
2022-12-26T09:58:23.867Z,980.7
2022-12-26T10:13:04.461Z,980.9
2022-12-26T10:27:41.679Z,980.9
2022-12-26T10:42:19.563Z,980.7
2022-12-26T10:56:58.058Z,980.8
2022-12-26T11:11:35.905Z,980.7
2022-12-26T11:26:13.447Z,980.8
2022-12-26T11:40:50.095Z,980.7
2022-12-26T11:55:28.345Z,980.7
2022-12-26T12:10:06.451Z,980.7
2022-12-26T12:24:44.859Z,980.6
2022-12-26T12:39:22.726Z,980.7
2022-12-26T12:54:00.668Z,980.4
2022-12-26T13:08:38.271Z,980.4
2022-12-26T13:23:14.597Z,980.6
2022-12-26T13:37:52.284Z,980.5
2022-12-26T13:52:29.531Z,980.5
2022-12-26T14:07:08.490Z,980.5
2022-12-26T14:21:47.032Z,980.7
2022-12-26T14:36:23.099Z,980.9
2022-12-26T14:51:03.537Z,981.2
2022-12-26T15:05:39.142Z,981.5
2022-12-26T15:20:16.122Z,981.4
2022-12-26T15:34:53.770Z,981.6
2022-12-26T15:49:29.532Z,981.8
2022-12-26T16:04:08.230Z,982
2022-12-26T16:18:44.366Z,982.2
2022-12-26T16:33:21.448Z,982.5
2022-12-26T16:47:58.377Z,982.9
2022-12-26T17:02:40.013Z,983
2022-12-26T17:17:16.334Z,983.4
2022-12-26T17:31:54.448Z,983.6
2022-12-26T17:46:31.490Z,983.8
2022-12-26T18:01:10.184Z,984
2022-12-26T18:15:47.274Z,984.2
2022-12-26T18:30:25.361Z,984.4
2022-12-26T18:45:01.616Z,984.9
2022-12-26T18:59:38.571Z,985.2
2022-12-26T19:14:16.172Z,985.5
2022-12-26T19:28:52.535Z,985.6
2022-12-26T19:43:31.041Z,986.1
2022-12-26T19:58:09.152Z,986.4
2022-12-26T20:12:47.504Z,986.6
2022-12-26T20:27:26.643Z,986.8
2022-12-26T20:42:04.958Z,987.1
2022-12-26T20:56:42.998Z,987.2
2022-12-26T21:11:20.462Z,987.5
2022-12-26T21:25:58.824Z,987.7
2022-12-26T21:40:36.812Z,987.8
2022-12-26T21:55:14.707Z,988
2022-12-26T22:09:53.110Z,988.1
2022-12-26T22:24:30.628Z,988.2
2022-12-26T22:39:10.257Z,988.3
2022-12-26T22:53:48.952Z,988.5
2022-12-26T23:08:28.177Z,988.7
2022-12-26T23:23:06.921Z,988.8
2022-12-26T23:37:47.200Z,989
2022-12-26T23:52:30.877Z,988.9
